createdAt,value
2023-03-13T00:01:40.771Z,19.63
2023-03-13T00:04:09.989Z,13.37
2023-03-13T00:06:42.551Z,10.77
2023-03-13T00:09:14.020Z,11.57
2023-03-13T00:11:42.731Z,14.27
2023-03-13T00:14:12.101Z,10.20
2023-03-13T00:16:40.715Z,9.33
2023-03-13T00:19:10.438Z,14.63
2023-03-13T00:21:41.319Z,8.83
2023-03-13T00:24:13.208Z,14.60
2023-03-13T00:26:41.929Z,13.53
2023-03-13T00:29:10.295Z,9.60
2023-03-13T00:31:39.056Z,10.20
2023-03-13T00:34:07.527Z,10.97
2023-03-13T00:36:39.082Z,11.27
2023-03-13T00:39:08.110Z,11.17
2023-03-13T00:41:38.835Z,11.50
2023-03-13T00:44:08.339Z,11.90
2023-03-13T00:46:38.066Z,10.03
2023-03-13T00:49:07.221Z,10.30
2023-03-13T00:51:39.009Z,10.07
2023-03-13T00:54:10.437Z,9.47
2023-03-13T00:56:38.865Z,11.07
2023-03-13T00:59:07.415Z,12.10
2023-03-13T01:01:38.050Z,8.63
2023-03-13T01:04:10.193Z,14.73
2023-03-13T01:06:42.994Z,18.53
2023-03-13T01:09:16.169Z,8.07
2023-03-13T01:11:47.006Z,9.07
2023-03-13T01:14:18.936Z,12.97
2023-03-13T01:16:48.200Z,8.67
2023-03-13T01:19:17.992Z,8.13
2023-03-13T01:21:48.101Z,15.47
2023-03-13T01:24:19.289Z,15.53
2023-03-13T01:26:48.163Z,12.57
2023-03-13T01:29:17.950Z,11.00
2023-03-13T01:31:46.399Z,13.87
2023-03-13T01:34:14.940Z,15.87
2023-03-13T01:36:43.817Z,8.93
2023-03-13T01:39:12.557Z,8.30
2023-03-13T01:41:42.412Z,11.93
2023-03-13T01:44:24.203Z,12.97
2023-03-13T01:46:54.449Z,11.47
2023-03-13T01:49:28.128Z,9.23
2023-03-13T01:52:23.484Z,13.53
2023-03-13T01:55:17.126Z,11.20
2023-03-13T01:57:55.957Z,9.70
2023-03-13T02:00:31.070Z,11.27
2023-03-13T02:03:08.163Z,7.53
2023-03-13T02:05:38.497Z,10.13
2023-03-13T02:08:15.873Z,7.20
2023-03-13T02:10:52.750Z,8.93
2023-03-13T02:13:24.530Z,7.47
2023-03-13T02:15:53.655Z,8.13
2023-03-13T02:18:22.744Z,11.53
2023-03-13T02:20:58.091Z,9.33
2023-03-13T02:23:36.961Z,10.37
2023-03-13T02:26:10.275Z,12.03
2023-03-13T02:28:40.893Z,10.30
2023-03-13T02:31:14.640Z,12.30
2023-03-13T02:33:45.241Z,14.17
2023-03-13T02:36:19.701Z,9.07
2023-03-13T02:38:56.197Z,11.77
2023-03-13T02:41:28.778Z,13.87
2023-03-13T02:43:59.142Z,9.83
2023-03-13T02:46:27.814Z,8.33
2023-03-13T02:48:58.044Z,12.63
2023-03-13T02:51:37.528Z,11.43
2023-03-13T02:54:10.036Z,10.43
2023-03-13T02:56:48.368Z,14.20
2023-03-13T02:59:16.922Z,14.53
2023-03-13T03:01:47.493Z,13.40
2023-03-13T03:04:15.899Z,13.00
2023-03-13T03:06:47.566Z,10.43
2023-03-13T03:09:16.230Z,10.23
2023-03-13T03:11:46.579Z,12.57
2023-03-13T03:14:18.286Z,11.23
2023-03-13T03:16:49.031Z,9.43
2023-03-13T03:19:17.740Z,12.27
2023-03-13T03:21:46.253Z,8.03
2023-03-13T03:24:14.882Z,16.13
2023-03-13T03:26:43.186Z,9.57
2023-03-13T03:29:20.516Z,9.60
2023-03-13T03:31:52.137Z,9.90
2023-03-13T03:34:20.572Z,11.03
2023-03-13T03:36:53.267Z,10.97
2023-03-13T03:39:21.891Z,9.73
2023-03-13T03:41:50.815Z,11.47
2023-03-13T03:44:20.876Z,11.60
2023-03-13T03:46:57.853Z,7.07
2023-03-13T03:49:28.535Z,10.57
2023-03-13T03:51:56.988Z,13.60
2023-03-13T03:54:31.342Z,9.77
2023-03-13T03:57:01.095Z,10.23
2023-03-13T03:59:31.104Z,11.10
2023-03-13T04:02:13.876Z,13.40
2023-03-13T04:04:43.804Z,10.77
2023-03-13T04:07:17.207Z,8.67
2023-03-13T04:09:46.006Z,12.87
2023-03-13T04:12:22.593Z,11.40
2023-03-13T04:14:55.004Z,10.53
2023-03-13T04:17:23.367Z,11.97
2023-03-13T04:19:51.954Z,7.60
2023-03-13T04:22:20.322Z,8.97
2023-03-13T04:24:52.777Z,8.43
2023-03-13T04:27:23.453Z,10.63
2023-03-13T04:29:54.353Z,7.73
2023-03-13T04:32:38.245Z,10.33
2023-03-13T04:35:33.595Z,8.33
2023-03-13T04:38:25.048Z,10.60
2023-03-13T04:41:16.796Z,16.50
2023-03-13T04:43:53.232Z,14.70
2023-03-13T04:46:49.845Z,7.90
2023-03-13T04:49:32.240Z,18.60
2023-03-13T04:52:10.619Z,17.17
2023-03-13T04:55:11.380Z,9.73
2023-03-13T04:58:01.333Z,9.70
2023-03-13T05:00:50.690Z,12.13
2023-03-13T05:03:33.327Z,12.03
2023-03-13T05:06:10.489Z,9.90
2023-03-13T05:09:17.549Z,9.27
2023-03-13T05:11:58.416Z,6.47
2023-03-13T05:14:55.003Z,11.27
2023-03-13T05:17:44.395Z,7.33
2023-03-13T05:20:25.007Z,10.10
2023-03-13T05:23:10.434Z,8.60
2023-03-13T05:25:57.225Z,14.33
2023-03-13T05:28:43.082Z,6.70
2023-03-13T05:31:17.355Z,14.00
2023-03-13T05:34:02.608Z,8.67
2023-03-13T05:36:50.800Z,7.37
2023-03-13T05:39:36.872Z,5.27
2023-03-13T05:42:28.185Z,8.80
2023-03-13T05:45:23.018Z,7.53
2023-03-13T05:48:20.407Z,6.07
2023-03-13T05:51:18.013Z,12.30
2023-03-13T05:54:17.219Z,9.93
2023-03-13T05:57:06.133Z,6.23
2023-03-13T05:59:53.267Z,8.63
2023-03-13T06:02:40.964Z,7.30
2023-03-13T06:05:12.751Z,10.23
2023-03-13T06:07:41.173Z,9.20
2023-03-13T06:10:13.549Z,11.10
2023-03-13T06:12:42.540Z,5.77
2023-03-13T06:15:13.807Z,11.97
2023-03-13T06:18:01.524Z,9.17
2023-03-13T06:20:30.015Z,16.50
2023-03-13T06:22:58.772Z,11.87
2023-03-13T06:25:29.108Z,10.30
2023-03-13T06:27:57.507Z,10.63
2023-03-13T06:30:26.440Z,6.17
2023-03-13T06:32:54.946Z,8.77
2023-03-13T06:35:23.444Z,7.53
2023-03-13T06:37:51.923Z,11.13
2023-03-13T06:40:20.725Z,9.37
2023-03-13T06:42:51.685Z,8.60
2023-03-13T06:45:20.264Z,6.50
2023-03-13T06:47:52.734Z,7.70
2023-03-13T06:50:21.296Z,8.23
2023-03-13T06:52:49.879Z,11.57
2023-03-13T06:55:18.470Z,9.03
2023-03-13T06:57:52.394Z,5.93
2023-03-13T07:00:22.191Z,9.07
2023-03-13T07:02:51.707Z,8.63
2023-03-13T07:05:20.373Z,7.70
2023-03-13T07:07:52.033Z,6.67
2023-03-13T07:10:20.960Z,14.60
2023-03-13T07:12:49.899Z,11.17
2023-03-13T07:15:20.150Z,8.83
2023-03-13T07:17:48.626Z,6.90
2023-03-13T07:20:17.913Z,9.87
2023-03-13T07:22:51.950Z,11.00
2023-03-13T07:25:20.640Z,7.23
2023-03-13T07:27:53.600Z,8.37
2023-03-13T07:30:23.757Z,11.67
2023-03-13T07:32:52.273Z,8.60
2023-03-13T07:35:21.137Z,6.70
2023-03-13T07:37:49.695Z,9.33
2023-03-13T07:40:18.690Z,8.70
2023-03-13T07:42:47.170Z,8.67
2023-03-13T07:45:15.661Z,6.27
2023-03-13T07:47:49.042Z,6.90
2023-03-13T07:50:18.385Z,8.27
2023-03-13T07:52:47.012Z,7.20
2023-03-13T07:55:15.498Z,7.97
2023-03-13T07:57:43.956Z,7.67
2023-03-13T08:00:16.664Z,7.27
2023-03-13T08:02:47.001Z,6.70
2023-03-13T08:05:15.881Z,9.17
2023-03-13T08:07:46.110Z,5.60
2023-03-13T08:10:14.607Z,7.03
2023-03-13T08:12:43.027Z,6.27
2023-03-13T08:15:12.158Z,6.07
2023-03-13T08:17:40.631Z,3.60
2023-03-13T08:20:12.816Z,5.53
2023-03-13T08:22:41.300Z,4.65
2023-03-13T08:25:10.284Z,3.13
2023-03-13T08:27:38.964Z,5.28
2023-03-13T08:30:09.702Z,3.58
2023-03-13T08:32:38.610Z,3.88
2023-03-13T08:35:08.417Z,6.07
2023-03-13T08:37:38.319Z,3.65
2023-03-13T08:40:11.475Z,4.22
2023-03-13T08:42:40.707Z,5.45
2023-03-13T08:45:10.676Z,3.63
2023-03-13T08:47:39.109Z,3.35
2023-03-13T08:50:08.822Z,2.80
2023-03-13T08:52:38.633Z,2.35
2023-03-13T08:55:09.265Z,3.10
2023-03-13T08:57:37.746Z,2.72
2023-03-13T09:00:08.100Z,2.80
2023-03-13T09:02:36.639Z,3.80
2023-03-13T09:05:06.092Z,1.67
2023-03-13T09:07:34.850Z,1.83
2023-03-13T09:10:05.606Z,3.58
2023-03-13T09:12:34.304Z,3.00
2023-03-13T09:15:06.686Z,4.47
2023-03-13T09:17:35.441Z,4.80
2023-03-13T09:20:04.770Z,3.35
2023-03-13T09:22:36.797Z,4.10
2023-03-13T09:25:07.851Z,1.58
2023-03-13T09:27:36.334Z,2.92
2023-03-13T09:30:05.431Z,7.32
2023-03-13T09:32:34.205Z,2.20
2023-03-13T09:35:02.679Z,3.95
2023-03-13T09:37:31.315Z,1.92
2023-03-13T09:40:01.091Z,5.85
2023-03-13T09:42:45.142Z,3.03
2023-03-13T09:45:20.940Z,1.95
2023-03-13T09:47:56.360Z,2.72
2023-03-13T09:50:31.256Z,2.95
2023-03-13T09:53:12.952Z,2.25
2023-03-13T09:55:46.067Z,3.17
2023-03-13T09:58:23.014Z,3.70
2023-03-13T10:00:58.622Z,3.67
2023-03-13T10:03:33.188Z,3.20
2023-03-13T10:06:07.961Z,4.55
2023-03-13T10:08:38.174Z,5.68
2023-03-13T10:11:12.974Z,4.63
2023-03-13T10:13:52.501Z,2.50
2023-03-13T10:16:33.485Z,3.35
2023-03-13T10:19:15.887Z,2.33
2023-03-13T10:21:50.629Z,4.10
2023-03-13T10:24:35.274Z,2.65
2023-03-13T10:27:03.923Z,2.40
2023-03-13T10:29:33.703Z,2.85
2023-03-13T10:32:04.951Z,3.83
2023-03-13T10:34:54.205Z,3.38
2023-03-13T10:37:26.812Z,3.15
2023-03-13T10:39:56.779Z,2.75
2023-03-13T10:42:33.553Z,4.75
2023-03-13T10:45:07.601Z,3.00
2023-03-13T10:47:37.378Z,2.63
2023-03-13T10:50:06.801Z,2.35
2023-03-13T10:52:44.104Z,2.50
2023-03-13T10:55:15.216Z,2.00
2023-03-13T10:58:00.391Z,1.27
2023-03-13T11:00:38.731Z,1.67
2023-03-13T11:03:17.892Z,3.20
2023-03-13T11:05:57.928Z,6.68
2023-03-13T11:08:29.141Z,2.65
2023-03-13T11:11:02.090Z,2.80
2023-03-13T11:13:42.840Z,3.15
2023-03-13T11:16:21.622Z,3.28
2023-03-13T11:19:17.735Z,1.58
2023-03-13T11:22:13.156Z,2.53
2023-03-13T11:24:51.151Z,2.10
2023-03-13T11:27:31.758Z,1.80
2023-03-13T11:30:17.753Z,3.38
2023-03-13T11:32:55.993Z,5.10
2023-03-13T11:35:43.944Z,2.13
2023-03-13T11:38:21.848Z,2.15
2023-03-13T11:41:02.423Z,1.67
2023-03-13T11:43:58.044Z,2.40
2023-03-13T11:46:46.893Z,2.58
2023-03-13T11:49:44.991Z,2.88
2023-03-13T11:52:48.803Z,1.15
2023-03-13T11:55:34.470Z,1.00
2023-03-13T11:58:37.048Z,1.98
2023-03-13T12:01:13.375Z,2.08
2023-03-13T12:03:55.616Z,2.08
2023-03-13T12:06:33.115Z,2.85
2023-03-13T12:09:12.161Z,1.48
2023-03-13T12:11:59.591Z,4.10
2023-03-13T12:14:38.108Z,1.90
2023-03-13T12:17:13.659Z,1.60
2023-03-13T12:19:53.920Z,2.75
2023-03-13T12:22:34.039Z,1.75
2023-03-13T12:25:07.572Z,2.63
2023-03-13T12:27:43.813Z,1.75
2023-03-13T12:30:29.031Z,3.13
2023-03-13T12:33:09.890Z,4.30
2023-03-13T12:35:43.522Z,2.90
2023-03-13T12:38:24.082Z,4.10
2023-03-13T12:41:06.327Z,3.85
2023-03-13T12:43:40.758Z,4.15
2023-03-13T12:46:36.038Z,4.43
2023-03-13T12:50:00.527Z,2.28
2023-03-13T12:52:59.162Z,2.60
2023-03-13T12:56:20.871Z,3.22
2023-03-13T12:58:54.498Z,2.25
2023-03-13T13:01:34.704Z,6.30
2023-03-13T13:04:08.179Z,5.38
2023-03-13T13:06:59.473Z,2.30
2023-03-13T13:09:32.943Z,1.92
2023-03-13T13:12:20.031Z,3.92
2023-03-13T13:15:06.062Z,2.88
2023-03-13T13:17:54.934Z,1.52
2023-03-13T13:20:40.862Z,2.50
2023-03-13T13:23:39.312Z,4.10
2023-03-13T13:26:49.741Z,3.38
2023-03-13T13:29:59.860Z,3.60
2023-03-13T13:32:50.152Z,6.75
2023-03-13T13:35:37.007Z,8.20
2023-03-13T13:38:36.961Z,7.28
2023-03-13T13:41:28.297Z,4.20
2023-03-13T13:44:30.944Z,3.97
2023-03-13T13:47:02.270Z,5.72
2023-03-13T13:49:55.332Z,2.95
2023-03-13T13:52:42.924Z,3.28
2023-03-13T13:55:45.367Z,2.10
2023-03-13T13:58:20.491Z,5.13
2023-03-13T14:00:57.314Z,3.25
2023-03-13T14:03:30.663Z,5.63
2023-03-13T14:06:06.198Z,5.63
2023-03-13T14:08:40.263Z,3.50
2023-03-13T14:11:26.569Z,3.35
2023-03-13T14:14:19.695Z,6.72
2023-03-13T14:16:51.225Z,3.17
2023-03-13T14:19:30.494Z,6.22
2023-03-13T14:22:09.164Z,3.03
2023-03-13T14:24:39.301Z,4.13
2023-03-13T14:27:18.352Z,2.75
2023-03-13T14:30:02.256Z,3.13
2023-03-13T14:32:30.988Z,4.00
2023-03-13T14:35:00.900Z,2.50
2023-03-13T14:37:38.069Z,2.03
2023-03-13T14:40:20.370Z,2.30
2023-03-13T14:42:52.227Z,3.75
2023-03-13T14:45:29.232Z,2.20
2023-03-13T14:48:04.059Z,3.85
2023-03-13T14:50:36.529Z,3.03
2023-03-13T14:53:14.129Z,2.63
2023-03-13T14:55:42.695Z,4.93
2023-03-13T14:58:29.714Z,7.00
2023-03-13T15:01:00.063Z,1.63
2023-03-13T15:03:34.064Z,2.15
2023-03-13T15:06:25.616Z,4.85
2023-03-13T15:09:17.238Z,1.63
2023-03-13T15:12:00.420Z,5.28
2023-03-13T15:14:41.087Z,5.00
2023-03-13T15:17:22.493Z,4.22
2023-03-13T15:19:54.192Z,4.32
2023-03-13T15:22:30.484Z,3.05
2023-03-13T15:25:07.873Z,2.95
2023-03-13T15:27:36.884Z,3.50
2023-03-13T15:30:07.046Z,3.70
2023-03-13T15:32:39.346Z,3.95
2023-03-13T15:35:28.819Z,4.30
2023-03-13T15:38:00.904Z,2.85
2023-03-13T15:40:30.898Z,2.97
2023-03-13T15:43:00.370Z,2.58
2023-03-13T15:45:29.479Z,2.67
2023-03-13T15:47:58.222Z,2.75
2023-03-13T15:50:30.864Z,3.75
2023-03-13T15:53:01.855Z,3.95
2023-03-13T15:55:31.545Z,3.28
2023-03-13T15:58:00.002Z,6.15
2023-03-13T16:00:28.910Z,5.82
2023-03-13T16:02:57.370Z,7.22
2023-03-13T16:05:26.288Z,4.43
2023-03-13T16:07:55.315Z,4.30
2023-03-13T16:10:29.185Z,4.90
2023-03-13T16:12:57.617Z,2.75
2023-03-13T16:15:26.004Z,4.30
2023-03-13T16:17:54.539Z,2.47
2023-03-13T16:20:26.580Z,3.25
2023-03-13T16:22:55.669Z,3.70
2023-03-13T16:25:26.617Z,7.10
2023-03-13T16:27:56.412Z,5.32
2023-03-13T16:30:27.987Z,2.65
2023-03-13T16:32:56.411Z,3.15
2023-03-13T16:35:26.759Z,3.92
2023-03-13T16:37:56.764Z,4.88
2023-03-13T16:40:31.442Z,5.28
2023-03-13T16:43:00.662Z,10.20
2023-03-13T16:45:29.551Z,4.07
2023-03-13T16:48:01.104Z,4.18
2023-03-13T16:50:36.432Z,3.50
2023-03-13T16:53:05.172Z,4.53
2023-03-13T16:55:36.991Z,7.18
2023-03-13T16:58:05.857Z,3.05
2023-03-13T17:00:34.813Z,5.25
2023-03-13T17:03:03.289Z,5.57
2023-03-13T17:05:32.026Z,8.63
2023-03-13T17:08:04.600Z,6.57
2023-03-13T17:10:35.948Z,3.90
2023-03-13T17:13:05.555Z,4.40
2023-03-13T17:15:34.513Z,5.07
2023-03-13T17:18:03.231Z,5.82
2023-03-13T17:20:31.931Z,9.85
2023-03-13T17:23:01.151Z,9.73
2023-03-13T17:25:30.083Z,6.22
2023-03-13T17:28:00.287Z,5.35
2023-03-13T17:30:32.293Z,5.18
2023-03-13T17:33:01.036Z,3.92
2023-03-13T17:35:29.687Z,8.10
2023-03-13T17:37:58.147Z,4.03
2023-03-13T17:40:31.272Z,5.35
2023-03-13T17:43:01.071Z,5.53
2023-03-13T17:45:30.928Z,5.63
2023-03-13T17:47:59.358Z,4.38
2023-03-13T17:50:29.559Z,6.35
2023-03-13T17:52:58.145Z,3.55
2023-03-13T17:55:26.626Z,5.03
2023-03-13T17:57:55.189Z,6.75
2023-03-13T18:00:31.925Z,3.15
2023-03-13T18:03:01.993Z,4.55
2023-03-13T18:05:30.589Z,6.43
2023-03-13T18:07:59.406Z,6.60
2023-03-13T18:10:31.223Z,3.78
2023-03-13T18:13:00.053Z,4.25
2023-03-13T18:15:30.578Z,3.67
2023-03-13T18:17:59.088Z,5.13
2023-03-13T18:20:31.832Z,3.75
2023-03-13T18:23:00.877Z,4.63
2023-03-13T18:25:30.684Z,3.55
2023-03-13T18:27:59.556Z,5.43
2023-03-13T18:30:30.222Z,4.88
2023-03-13T18:32:58.772Z,5.30
2023-03-13T18:35:27.600Z,4.85
2023-03-13T18:37:56.346Z,5.53
2023-03-13T18:40:29.423Z,3.78
2023-03-13T18:42:58.609Z,3.70
2023-03-13T18:45:28.257Z,3.28
2023-03-13T18:47:58.746Z,5.70
2023-03-13T18:50:30.739Z,3.72
2023-03-13T18:53:01.263Z,3.33
2023-03-13T18:55:35.860Z,3.23
2023-03-13T18:58:04.525Z,4.03
2023-03-13T19:00:35.001Z,4.47
2023-03-13T19:03:04.967Z,7.63
2023-03-13T19:05:33.568Z,5.07
2023-03-13T19:08:02.157Z,4.90
2023-03-13T19:10:32.590Z,5.40
2023-03-13T19:13:01.237Z,6.80
2023-03-13T19:15:32.951Z,6.23
2023-03-13T19:18:03.917Z,3.53
2023-03-13T19:20:34.153Z,3.50
2023-03-13T19:23:02.629Z,6.37
2023-03-13T19:25:31.084Z,3.43
2023-03-13T19:27:59.960Z,4.83
2023-03-13T19:30:29.136Z,6.97
2023-03-13T19:32:57.778Z,4.50
2023-03-13T19:35:26.245Z,3.60
2023-03-13T19:37:56.013Z,5.17
2023-03-13T19:40:28.712Z,4.87
2023-03-13T19:42:57.263Z,3.07
2023-03-13T19:45:26.470Z,4.57
2023-03-13T19:47:54.968Z,3.10
2023-03-13T19:50:27.633Z,5.57
2023-03-13T19:52:57.648Z,4.57
2023-03-13T19:55:26.162Z,5.37
2023-03-13T19:57:54.668Z,2.97
2023-03-13T20:00:31.865Z,3.97
2023-03-13T20:03:00.435Z,3.07
2023-03-13T20:05:29.252Z,2.80
2023-03-13T20:07:59.205Z,4.40
2023-03-13T20:10:27.792Z,3.50
2023-03-13T20:12:56.252Z,2.90
2023-03-13T20:15:25.275Z,3.80
2023-03-13T20:17:54.045Z,4.00
2023-03-13T20:20:22.707Z,5.40
2023-03-13T20:22:51.419Z,3.90
2023-03-13T20:25:24.106Z,6.17
2023-03-13T20:27:53.563Z,2.90
2023-03-13T20:30:23.037Z,3.50
2023-03-13T20:32:59.345Z,3.87
2023-03-13T20:35:33.234Z,3.27
2023-03-13T20:38:01.886Z,3.43
2023-03-13T20:40:31.804Z,5.03
2023-03-13T20:43:01.035Z,3.03
2023-03-13T20:45:31.025Z,3.23
2023-03-13T20:47:59.946Z,7.05
2023-03-13T20:50:29.046Z,2.50
2023-03-13T20:52:57.576Z,4.63
2023-03-13T20:55:26.091Z,5.00
2023-03-13T20:57:55.855Z,5.03
2023-03-13T21:00:28.569Z,5.82
2023-03-13T21:02:57.416Z,4.75
2023-03-13T21:05:26.130Z,3.15
2023-03-13T21:07:54.711Z,4.35
2023-03-13T21:10:23.622Z,2.47
2023-03-13T21:12:52.225Z,5.30
2023-03-13T21:15:22.431Z,2.97
2023-03-13T21:17:50.793Z,4.90
2023-03-13T21:20:19.433Z,2.88
2023-03-13T21:22:48.365Z,3.95
2023-03-13T21:25:17.256Z,2.38
2023-03-13T21:27:49.424Z,2.30
2023-03-13T21:30:20.343Z,1.85
2023-03-13T21:32:50.231Z,2.63
2023-03-13T21:35:19.167Z,1.83
2023-03-13T21:37:47.657Z,1.95
2023-03-13T21:40:16.677Z,1.48
2023-03-13T21:42:45.210Z,1.35
2023-03-13T21:45:13.936Z,1.67
2023-03-13T21:47:42.399Z,1.58
2023-03-13T21:50:14.367Z,1.70
2023-03-13T21:52:42.928Z,5.68
2023-03-13T21:55:14.596Z,2.10
2023-03-13T21:57:43.276Z,1.63
2023-03-13T22:00:14.196Z,1.58
2023-03-13T22:02:43.435Z,1.75
2023-03-13T22:05:13.626Z,3.03
2023-03-13T22:07:42.068Z,1.77
2023-03-13T22:10:12.831Z,3.20
2023-03-13T22:12:41.414Z,1.27
2023-03-13T22:15:12.353Z,1.27
2023-03-13T22:17:40.837Z,1.30
2023-03-13T22:20:12.997Z,2.90
2023-03-13T22:22:41.477Z,1.93
2023-03-13T22:25:11.052Z,2.27
2023-03-13T22:27:39.656Z,2.50
2023-03-13T22:30:10.405Z,1.40
2023-03-13T22:32:39.340Z,2.80
2023-03-13T22:35:09.888Z,3.50
2023-03-13T22:37:40.076Z,5.97
2023-03-13T22:40:10.019Z,1.43
2023-03-13T22:42:38.463Z,4.33
2023-03-13T22:45:08.542Z,1.57
2023-03-13T22:47:37.156Z,1.93
2023-03-13T22:50:06.656Z,1.67
2023-03-13T22:52:35.158Z,2.40
2023-03-13T22:55:06.200Z,1.40
2023-03-13T22:57:34.966Z,2.43
2023-03-13T23:00:03.538Z,3.03
2023-03-13T23:02:32.468Z,2.50
2023-03-13T23:05:01.370Z,1.17
2023-03-13T23:07:32.443Z,1.50
2023-03-13T23:10:01.110Z,3.10
2023-03-13T23:12:31.075Z,3.37
2023-03-13T23:15:02.128Z,1.43
2023-03-13T23:17:33.588Z,0.90
2023-03-13T23:20:02.380Z,1.17
2023-03-13T23:22:33.006Z,1.47
2023-03-13T23:25:02.337Z,1.47
2023-03-13T23:27:33.127Z,1.00
2023-03-13T23:30:04.302Z,2.40
2023-03-13T23:32:37.038Z,1.00
2023-03-13T23:35:07.285Z,1.80
2023-03-13T23:37:36.697Z,0.80
2023-03-13T23:40:10.586Z,1.43
2023-03-13T23:42:40.807Z,1.60
2023-03-13T23:45:10.216Z,3.23
2023-03-13T23:47:39.218Z,1.03
2023-03-13T23:50:08.410Z,1.03
2023-03-13T23:52:37.195Z,1.67
2023-03-13T23:55:07.544Z,0.70
2023-03-13T23:57:37.684Z,1.03
